This is the latest recevied weather packets stored in our database for station/object JH1LWU-13. If no packets are shown the sender has not sent any weather packets the latest 10 day(s).
| Time | Temp. | Humidity | Pressure | Rain* | Wind** | Luminosity | Snow |
|---|---|---|---|---|---|---|---|
| 1777822401 | 17.78° C | 76% | 1000 hPa | 0 mm | - | - | - |
| 1777820600 | 17.78° C | 76% | 1000 hPa | 0 mm | - | - | - |
| 1777818799 | 17.78° C | 74% | 1001 hPa | 0 mm | - | - | - |
| 1777816998 | 18.33° C | 72% | 1001 hPa | 0 mm | - | - | - |
| 1777815197 | 18.89° C | 68% | 1000 hPa | 0 mm | - | - | - |
| 1777813396 | 18.89° C | 67% | 1002 hPa | 0 mm | - | - | - |
| 1777811595 | 18.89° C | 64% | 1001 hPa | 0 mm | - | - | - |
| 1777809794 | 18.89° C | 69% | 1001 hPa | 0 mm | - | - | - |
| 1777807993 | 18.89° C | 68% | 1003 hPa | 0 mm | - | - | - |
| 1777806192 | 18.89° C | 68% | 1003 hPa | 0 mm | - | - | - |
| 1777804391 | 18.89° C | 67% | 1001 hPa | 0 mm | - | - | - |
| 1777802590 | 18.89° C | 66% | 1002 hPa | 0 mm | - | - | - |
| 1777800789 | 19.44° C | 65% | 1003 hPa | 0 mm | - | - | - |
| 1777798988 | 19.44° C | 63% | 1003 hPa | 0 mm | - | - | - |
| 1777797187 | 20° C | 62% | 1004 hPa | 0 mm | - | - | - |
| 1777795386 | 20.56° C | 63% | 1003 hPa | 0 mm | - | - | - |
| 1777793585 | 21.11° C | 60% | 1003 hPa | 0 mm | - | - | - |
| 1777791784 | 21.11° C | 62% | 1003 hPa | 0 mm | - | - | - |
| 1777789983 | 21.11° C | 62% | 1003 hPa | 0 mm | - | - | - |
| 1777788182 | 22.22° C | 59% | 1003 hPa | 0 mm | - | - | - |
| 1777786381 | 22.22° C | 56% | 1003 hPa | 0 mm | - | - | - |
| 1777784580 | 22.22° C | 49% | 1005 hPa | 0 mm | - | - | - |
| 1777782779 | 23.33° C | 44% | 1005 hPa | 0 mm | - | - | - |
| 1777780978 | 22.78° C | 47% | 1007 hPa | 0 mm | - | - | - |
| 1777779177 | 22.22° C | 51% | 1006 hPa | 0 mm | - | - | - |
* Rain latest hour (hover to see other rain measurements)
** Current wind speed in m/s (hover to see current wind gust speed)